Terminal Aerodrome Forecast
Issued by NWS

Home | Current Version | Previous Version | Text Only | Print | Product List | Glossary On
Versions: 1 2 3 4 5 6 7 8 9 10 11 12 13 14 15 16 17 18 19 20 21 22 23 24 25 26 27 28 29
000
FTUS42 KCAE 221100 RRA
TAFDNL
TAF
KDNL 221143Z 2212/2312 VRB03KT P6SM FEW006 BKN035 OVC050
      TEMPO 2212/2213 BKN006
     FM221400 07005KT P6SM SCT015 BKN025
      TEMPO 2214/2216 BKN012 OVC025
     FM221700 10005KT P6SM VCSH BKN050
     FM222300 VRB03KT P6SM VCSH SCT020 BKN040=

USA.gov is the U.S. government's official web portal to all federal, state and local government web resources and services.